createdAt,value
2019-02-08T00:01:00.147Z,74.22
2019-02-08T00:03:31.852Z,73.20
2019-02-08T00:06:01.861Z,70.60
2019-02-08T00:08:32.160Z,71.67
2019-02-08T00:11:03.563Z,71.15
2019-02-08T00:13:33.880Z,72.75
2019-02-08T00:16:04.452Z,70.83
2019-02-08T00:18:34.744Z,70.55
2019-02-08T00:21:05.855Z,70.20
2019-02-08T00:23:36.150Z,71.02
2019-02-08T00:26:06.570Z,68.75
2019-02-08T00:28:36.877Z,70.03
2019-02-08T00:31:07.390Z,73.60
2019-02-08T00:33:37.713Z,69.53
2019-02-08T00:36:08.386Z,68.97
2019-02-08T00:38:38.811Z,69.05
2019-02-08T00:41:09.052Z,70.10
2019-02-08T00:43:39.397Z,67.50
2019-02-08T00:46:12.842Z,69.80
2019-02-08T00:48:43.855Z,70.67
2019-02-08T00:51:14.119Z,68.05
2019-02-08T00:53:44.450Z,68.28
2019-02-08T00:56:14.791Z,67.35
2019-02-08T00:58:44.662Z,68.53
2019-02-08T01:01:14.458Z,69.23
2019-02-08T01:03:44.492Z,66.70
2019-02-08T01:06:14.874Z,66.00
2019-02-08T01:08:45.354Z,68.52
2019-02-08T01:11:15.734Z,68.30
2019-02-08T01:13:45.742Z,66.87
2019-02-08T01:16:16.313Z,69.20
2019-02-08T01:18:49.521Z,68.52
2019-02-08T01:21:20.297Z,67.33
2019-02-08T01:23:50.612Z,68.33
2019-02-08T01:26:20.447Z,71.87
2019-02-08T01:28:50.184Z,70.43
2019-02-08T01:31:20.424Z,73.47
2019-02-08T01:33:50.727Z,73.62
2019-02-08T01:36:20.984Z,74.20
2019-02-08T01:38:51.247Z,75.57
2019-02-08T01:41:21.749Z,75.50
2019-02-08T01:43:52.053Z,75.50
2019-02-08T01:46:22.406Z,77.20
2019-02-08T01:48:53.116Z,77.67
2019-02-08T01:51:23.537Z,74.65
2019-02-08T01:53:53.743Z,73.60
2019-02-08T01:56:24.257Z,77.25
2019-02-08T01:58:54.181Z,77.67
2019-02-08T02:01:24.434Z,76.42
2019-02-08T02:03:55.323Z,78.15
2019-02-08T02:06:25.757Z,78.57
2019-02-08T02:08:56.076Z,80.45
2019-02-08T02:11:25.712Z,79.60
2019-02-08T02:13:55.593Z,77.63
2019-02-08T02:16:25.261Z,80.70
2019-02-08T02:18:55.570Z,79.37
2019-02-08T02:21:25.274Z,79.90
2019-02-08T02:23:56.239Z,80.33
2019-02-08T02:26:27.521Z,76.47
2019-02-08T02:28:57.139Z,76.60
2019-02-08T02:31:26.903Z,79.22
2019-02-08T02:33:56.792Z,78.83
2019-02-08T02:36:27.162Z,78.10
2019-02-08T02:38:57.547Z,78.72
2019-02-08T02:41:27.859Z,80.67
2019-02-08T02:43:57.645Z,78.53
2019-02-08T02:46:28.092Z,75.67
2019-02-08T02:48:58.124Z,71.60
2019-02-08T02:51:27.931Z,69.27
2019-02-08T02:54:04.754Z,69.23
2019-02-08T02:56:30.134Z,72.80
2019-02-08T02:58:59.799Z,68.13
2019-02-08T03:01:30.318Z,69.32
2019-02-08T03:04:11.119Z,75.77
2019-02-08T03:06:41.375Z,76.65
2019-02-08T03:09:11.697Z,75.62
2019-02-08T03:11:42.026Z,77.70
2019-02-08T03:14:11.828Z,77.50
2019-02-08T03:16:42.232Z,78.92
2019-02-08T03:19:12.556Z,80.40
2019-02-08T03:21:43.957Z,74.85
2019-02-08T03:24:13.699Z,74.63
2019-02-08T03:26:43.421Z,75.60
2019-02-08T03:29:13.123Z,73.80
2019-02-08T03:31:43.762Z,75.15
2019-02-08T03:34:13.683Z,77.47
2019-02-08T03:36:44.108Z,78.00
2019-02-08T03:39:13.846Z,76.50
2019-02-08T03:41:43.636Z,76.53
2019-02-08T03:44:13.506Z,79.97
2019-02-08T03:46:43.213Z,78.40
2019-02-08T03:49:13.525Z,77.92
2019-02-08T03:51:43.219Z,80.07
2019-02-08T03:54:20.728Z,78.95
2019-02-08T03:56:44.906Z,78.43
2019-02-08T03:59:15.152Z,78.17
2019-02-08T04:01:44.923Z,76.77
2019-02-08T04:04:15.892Z,76.40
2019-02-08T04:06:45.681Z,78.57
2019-02-08T04:09:15.383Z,77.80
2019-02-08T04:11:48.485Z,78.17
2019-02-08T04:14:18.133Z,79.10
2019-02-08T04:16:48.379Z,77.87
2019-02-08T04:19:18.590Z,78.28
2019-02-08T04:21:48.899Z,78.47
2019-02-08T04:24:18.604Z,76.03
2019-02-08T04:27:02.403Z,75.50
2019-02-08T04:29:38.673Z,77.57
2019-02-08T04:32:13.297Z,76.33
2019-02-08T04:34:43.578Z,75.05
2019-02-08T04:37:14.005Z,73.83
2019-02-08T04:39:43.726Z,73.83
2019-02-08T04:42:14.223Z,73.37
2019-02-08T04:44:44.529Z,74.97
2019-02-08T04:47:14.783Z,76.53
2019-02-08T04:49:44.409Z,80.27
2019-02-08T04:52:14.636Z,79.27
2019-02-08T04:54:44.442Z,77.77
2019-02-08T04:57:14.203Z,77.95
2019-02-08T04:59:44.666Z,75.32
2019-02-08T05:02:14.314Z,73.27
2019-02-08T05:04:44.569Z,75.52
2019-02-08T05:07:14.882Z,74.97
2019-02-08T05:09:44.637Z,75.47
2019-02-08T05:12:14.326Z,74.17
2019-02-08T05:14:43.956Z,72.87
2019-02-08T05:17:13.585Z,75.05
2019-02-08T05:19:43.268Z,70.13
2019-02-08T05:22:13.489Z,75.20
2019-02-08T05:24:45.954Z,67.50
2019-02-08T05:27:14.669Z,66.60
2019-02-08T05:29:44.934Z,70.42
2019-02-08T05:32:15.277Z,71.70
2019-02-08T05:34:46.591Z,69.20
2019-02-08T05:37:16.408Z,69.53
2019-02-08T05:39:46.602Z,66.73
2019-02-08T05:42:17.007Z,63.08
2019-02-08T05:44:47.459Z,63.80
2019-02-08T05:47:17.748Z,65.05
2019-02-08T05:49:47.455Z,69.43
2019-02-08T05:52:17.210Z,67.53
2019-02-08T05:54:54.228Z,67.50
2019-02-08T05:57:19.382Z,64.70
2019-02-08T05:59:49.380Z,68.53
2019-02-08T06:02:19.775Z,66.92
2019-02-08T06:04:50.018Z,67.78
2019-02-08T06:07:19.995Z,67.67
2019-02-08T06:09:49.849Z,67.87
2019-02-08T06:12:20.173Z,67.78
2019-02-08T06:14:50.506Z,68.45
2019-02-08T06:17:20.296Z,68.97
2019-02-08T06:19:50.635Z,67.10
2019-02-08T06:22:20.878Z,70.92
2019-02-08T06:24:51.175Z,70.10
2019-02-08T06:27:21.435Z,68.85
2019-02-08T06:29:51.639Z,67.95
2019-02-08T06:32:22.002Z,70.35
2019-02-08T06:34:52.276Z,67.35
2019-02-08T06:37:22.549Z,64.62
2019-02-08T06:39:52.970Z,58.33
2019-02-08T06:42:23.525Z,62.62
2019-02-08T06:44:54.157Z,61.88
2019-02-08T06:47:24.676Z,63.63
2019-02-08T06:49:55.094Z,62.70
2019-02-08T06:52:25.547Z,60.45
2019-02-08T06:54:55.958Z,62.45
2019-02-08T06:57:27.852Z,58.28
2019-02-08T06:59:59.217Z,57.60
2019-02-08T07:02:37.228Z,58.70
2019-02-08T07:05:16.722Z,58.93
2019-02-08T07:07:54.950Z,54.80
2019-02-08T07:10:26.943Z,54.80
2019-02-08T07:13:02.254Z,56.20
2019-02-08T07:15:34.058Z,55.48
2019-02-08T07:18:12.071Z,54.50
2019-02-08T07:20:59.540Z,51.25
2019-02-08T07:23:48.221Z,51.25
2019-02-08T07:26:24.658Z,52.13
2019-02-08T07:28:56.636Z,47.65
2019-02-08T07:31:44.929Z,48.78
2019-02-08T07:34:33.889Z,46.48
2019-02-08T07:37:11.978Z,48.68
2019-02-08T07:39:49.502Z,45.85
2019-02-08T07:42:40.622Z,45.30
2019-02-08T07:45:15.668Z,44.33
2019-02-08T07:47:47.683Z,44.95
2019-02-08T07:50:26.465Z,43.38
2019-02-08T07:52:58.518Z,45.92
2019-02-08T07:55:30.536Z,44.58
2019-02-08T07:58:11.709Z,45.35
2019-02-08T08:00:43.612Z,44.77
2019-02-08T08:03:32.274Z,44.55
2019-02-08T08:06:11.075Z,46.40
2019-02-08T08:08:43.227Z,50.00
2019-02-08T08:11:32.223Z,53.15
2019-02-08T08:14:10.298Z,55.50
2019-02-08T08:16:47.642Z,58.87
2019-02-08T08:19:32.128Z,58.10
2019-02-08T08:22:19.732Z,58.73
2019-02-08T08:24:54.148Z,63.35
2019-02-08T08:27:29.611Z,59.48
2019-02-08T08:30:05.486Z,56.88
2019-02-08T08:32:38.806Z,53.60
2019-02-08T08:35:17.941Z,53.60
2019-02-08T08:38:06.239Z,52.75
2019-02-08T08:40:50.058Z,52.53
2019-02-08T08:43:41.049Z,51.25
2019-02-08T08:46:35.118Z,54.00
2019-02-08T08:49:23.975Z,53.28
2019-02-08T08:52:21.832Z,52.95
2019-02-08T08:55:16.626Z,46.85
2019-02-08T08:58:05.774Z,49.90
2019-02-08T09:00:56.951Z,50.33
2019-02-08T09:03:50.775Z,48.98
2019-02-08T09:06:23.964Z,45.92
2019-02-08T09:09:23.455Z,47.60
2019-02-08T09:12:20.232Z,48.17
2019-02-08T09:15:12.924Z,40.00
2019-02-08T09:18:01.701Z,44.45
2019-02-08T09:20:39.078Z,39.65
2019-02-08T09:23:31.463Z,42.62
2019-02-08T09:26:13.586Z,37.38
2019-02-08T09:28:52.501Z,43.33
2019-02-08T09:31:53.210Z,41.20
2019-02-08T09:34:35.453Z,44.77
2019-02-08T09:37:17.615Z,44.48
2019-02-08T09:39:59.672Z,43.55
2019-02-08T09:43:06.143Z,44.70
2019-02-08T09:45:39.436Z,46.68
2019-02-08T09:48:32.363Z,45.58
2019-02-08T09:51:36.346Z,42.40
2019-02-08T09:54:44.036Z,45.45
2019-02-08T09:57:33.752Z,41.48
2019-02-08T10:00:19.931Z,39.67
2019-02-08T10:03:13.978Z,33.25
2019-02-08T10:06:11.219Z,29.15
2019-02-08T10:09:04.192Z,34.98
2019-02-08T10:11:52.475Z,32.85
2019-02-08T10:14:41.041Z,30.40
2019-02-08T10:17:37.148Z,22.82
2019-02-08T10:20:22.231Z,33.02
2019-02-08T10:23:14.476Z,32.65
2019-02-08T10:26:05.346Z,32.63
2019-02-08T10:28:57.096Z,34.55
2019-02-08T10:31:36.315Z,30.23
2019-02-08T10:34:32.821Z,33.13
2019-02-08T10:37:22.755Z,26.68
2019-02-08T10:40:27.936Z,35.08
2019-02-08T10:43:34.802Z,33.42
2019-02-08T10:46:24.929Z,31.65
2019-02-08T10:49:16.228Z,31.87
2019-02-08T10:52:22.939Z,24.25
2019-02-08T10:55:27.753Z,31.62
2019-02-08T10:58:29.872Z,32.00
2019-02-08T11:01:42.021Z,30.55
2019-02-08T11:04:12.167Z,30.15
2019-02-08T11:07:04.833Z,31.15
2019-02-08T11:10:10.008Z,23.42
2019-02-08T11:12:49.017Z,30.75
2019-02-08T11:15:44.767Z,30.85
2019-02-08T11:18:28.537Z,37.93
2019-02-08T11:20:58.928Z,32.95
2019-02-08T11:23:29.191Z,32.38
2019-02-08T11:25:59.560Z,34.90
2019-02-08T11:28:29.832Z,35.13
2019-02-08T11:31:00.113Z,35.58
2019-02-08T11:33:30.359Z,35.15
2019-02-08T11:36:00.633Z,34.45
2019-02-08T11:38:30.944Z,35.48
2019-02-08T11:41:02.292Z,35.98
2019-02-08T11:43:32.833Z,36.03
2019-02-08T11:46:03.112Z,35.10
2019-02-08T11:48:34.490Z,69.37
2019-02-08T11:51:05.635Z,37.63
2019-02-08T11:53:35.852Z,38.65
2019-02-08T11:56:06.771Z,40.15
2019-02-08T11:58:36.987Z,35.43
2019-02-08T12:01:08.756Z,44.23
2019-02-08T12:03:39.286Z,39.53
2019-02-08T12:06:09.515Z,38.70
2019-02-08T12:08:39.827Z,36.60
2019-02-08T12:11:11.775Z,36.50
2019-02-08T12:13:41.994Z,33.98
2019-02-08T12:16:12.626Z,32.03
2019-02-08T12:18:42.809Z,33.38
2019-02-08T12:21:13.061Z,29.92
2019-02-08T12:23:43.319Z,25.12
2019-02-08T12:26:13.896Z,29.12
2019-02-08T12:28:44.187Z,26.85
2019-02-08T12:31:14.438Z,29.32
2019-02-08T12:33:45.709Z,27.27
2019-02-08T12:36:16.826Z,27.05
2019-02-08T12:38:47.031Z,29.00
2019-02-08T12:41:17.349Z,29.12
2019-02-08T12:43:49.971Z,32.83
2019-02-08T12:46:20.323Z,32.42
2019-02-08T12:48:50.585Z,29.57
2019-02-08T12:51:20.849Z,28.23
2019-02-08T12:53:51.072Z,27.67
2019-02-08T12:56:21.776Z,28.62
2019-02-08T12:58:52.013Z,28.55
2019-02-08T13:01:22.514Z,29.23
2019-02-08T13:03:52.799Z,28.15
2019-02-08T13:06:23.199Z,31.15
2019-02-08T13:08:53.412Z,28.27
2019-02-08T13:11:23.745Z,31.27
2019-02-08T13:13:55.025Z,34.05
2019-02-08T13:16:25.380Z,32.78
2019-02-08T13:18:55.866Z,32.15
2019-02-08T13:21:26.382Z,28.52
2019-02-08T13:23:56.626Z,31.73
2019-02-08T13:26:27.431Z,31.57
2019-02-08T13:28:57.810Z,29.48
2019-02-08T13:31:27.978Z,30.35
2019-02-08T13:33:58.498Z,28.38
2019-02-08T13:36:28.860Z,27.40
2019-02-08T13:38:59.070Z,27.10
2019-02-08T13:41:29.413Z,27.93
2019-02-08T13:43:59.857Z,27.58
2019-02-08T13:46:30.283Z,26.48
2019-02-08T13:49:00.658Z,26.33
2019-02-08T13:51:30.986Z,28.00
2019-02-08T13:54:01.359Z,31.57
2019-02-08T13:56:31.833Z,30.95
2019-02-08T13:59:02.206Z,30.95
2019-02-08T14:01:32.720Z,31.70
2019-02-08T14:04:03.091Z,29.55
2019-02-08T14:06:33.348Z,29.95
2019-02-08T14:09:04.711Z,30.17
2019-02-08T14:11:35.235Z,28.92
2019-02-08T14:14:05.745Z,26.95
2019-02-08T14:16:36.193Z,25.55
2019-02-08T14:19:06.699Z,27.13
2019-02-08T14:21:37.431Z,25.23
2019-02-08T14:24:07.647Z,23.55
2019-02-08T14:26:39.119Z,21.02
2019-02-08T14:29:09.488Z,22.22
2019-02-08T14:31:39.925Z,22.55
2019-02-08T14:34:10.188Z,19.77
2019-02-08T14:36:40.439Z,19.87
2019-02-08T14:39:10.767Z,20.60
2019-02-08T14:41:41.360Z,20.23
2019-02-08T14:44:11.688Z,21.50
2019-02-08T14:46:42.029Z,21.15
2019-02-08T14:49:12.432Z,21.02
2019-02-08T14:51:42.659Z,21.23
2019-02-08T14:54:12.899Z,20.70
2019-02-08T14:56:43.468Z,19.98
2019-02-08T14:59:14.410Z,20.75
2019-02-08T15:01:45.033Z,19.52
2019-02-08T15:04:15.306Z,21.05
2019-02-08T15:06:45.834Z,21.02
2019-02-08T15:09:20.147Z,20.57
2019-02-08T15:11:50.719Z,19.98
2019-02-08T15:14:21.155Z,20.68
2019-02-08T15:16:51.515Z,19.32
2019-02-08T15:19:21.708Z,19.90
2019-02-08T15:21:52.095Z,20.27
2019-02-08T15:24:22.284Z,21.33
2019-02-08T15:26:52.941Z,21.48
2019-02-08T15:29:23.227Z,21.75
2019-02-08T15:31:53.502Z,21.82
2019-02-08T15:34:23.687Z,23.00
2019-02-08T15:36:53.926Z,21.97
2019-02-08T15:39:24.249Z,23.65
2019-02-08T15:41:54.508Z,22.17
2019-02-08T15:44:24.717Z,24.98
2019-02-08T15:46:55.022Z,23.77
2019-02-08T15:49:25.236Z,22.77
2019-02-08T15:51:55.510Z,24.98
2019-02-08T15:54:25.682Z,23.87
2019-02-08T15:56:55.888Z,24.50
2019-02-08T15:59:26.190Z,24.77
2019-02-08T16:01:57.340Z,25.00
2019-02-08T16:04:27.612Z,25.15
2019-02-08T16:06:57.896Z,25.05
2019-02-08T16:09:28.226Z,25.55
2019-02-08T16:11:58.559Z,26.25
2019-02-08T16:14:28.755Z,24.70
2019-02-08T16:16:58.971Z,25.75
2019-02-08T16:19:29.296Z,24.75
2019-02-08T16:21:59.699Z,25.10
2019-02-08T16:24:29.898Z,26.30
2019-02-08T16:27:00.297Z,26.35
2019-02-08T16:29:30.491Z,25.82
2019-02-08T16:32:00.799Z,25.25
2019-02-08T16:34:31.027Z,26.65
2019-02-08T16:37:03.580Z,26.48
2019-02-08T16:39:33.207Z,26.25
2019-02-08T16:42:03.471Z,28.60
2019-02-08T16:44:34.764Z,26.95
2019-02-08T16:47:05.492Z,30.02
2019-02-08T16:49:35.787Z,27.37
2019-02-08T16:52:06.167Z,27.13
2019-02-08T16:54:36.483Z,28.83
2019-02-08T16:57:06.678Z,28.65
2019-02-08T16:59:36.927Z,28.67
2019-02-08T17:02:09.175Z,28.85
2019-02-08T17:04:39.426Z,28.90
2019-02-08T17:07:09.653Z,27.87
2019-02-08T17:09:40.054Z,28.42
2019-02-08T17:12:10.256Z,29.07
2019-02-08T17:14:40.642Z,31.40
2019-02-08T17:17:10.858Z,30.62
2019-02-08T17:19:41.131Z,37.17
2019-02-08T17:22:11.389Z,48.40
2019-02-08T17:24:41.706Z,49.58
2019-02-08T17:27:11.966Z,72.17
2019-02-08T17:29:42.171Z,87.20
2019-02-08T17:32:12.455Z,80.40
2019-02-08T17:34:42.715Z,84.77
2019-02-08T17:37:13.004Z,83.07
2019-02-08T17:39:44.729Z,80.28
2019-02-08T17:42:15.220Z,70.92
2019-02-08T17:44:45.531Z,79.25
2019-02-08T17:47:16.812Z,62.27
2019-02-08T17:49:47.065Z,47.38
2019-02-08T17:52:17.797Z,50.85
2019-02-08T17:54:47.954Z,43.85
2019-02-08T17:57:18.247Z,49.27
2019-02-08T17:59:48.882Z,50.63
2019-02-08T18:02:19.928Z,45.05
2019-02-08T18:04:50.164Z,43.40
2019-02-08T18:07:20.368Z,41.70
2019-02-08T18:09:50.583Z,48.55
2019-02-08T18:12:20.810Z,64.60
2019-02-08T18:14:51.013Z,53.42
2019-02-08T18:17:21.383Z,50.58
2019-02-08T18:19:51.768Z,50.30
2019-02-08T18:22:22.011Z,50.95
2019-02-08T18:24:52.207Z,53.05
2019-02-08T18:27:22.422Z,51.50
2019-02-08T18:29:52.709Z,55.65
2019-02-08T18:32:22.989Z,57.40
2019-02-08T18:34:53.406Z,61.33
2019-02-08T18:37:23.663Z,75.72
2019-02-08T18:39:54.911Z,91.22
2019-02-08T18:42:25.046Z,102.02
2019-02-08T18:44:55.272Z,97.10
2019-02-08T18:47:25.518Z,94.77
2019-02-08T18:49:55.743Z,98.65
2019-02-08T18:52:26.139Z,96.25
2019-02-08T18:54:56.383Z,97.22
2019-02-08T18:57:27.170Z,111.32
2019-02-08T18:59:57.634Z,105.37
2019-02-08T19:02:28.792Z,101.30
2019-02-08T19:05:00.278Z,62.75
2019-02-08T19:07:30.501Z,95.97
2019-02-08T19:10:00.938Z,102.07
2019-02-08T19:12:31.220Z,120.22
2019-02-08T19:15:03.131Z,123.82
2019-02-08T19:17:33.345Z,104.97
2019-02-08T19:20:04.847Z,97.20
2019-02-08T19:22:35.077Z,98.92
2019-02-08T19:25:13.930Z,94.62
2019-02-08T19:27:44.433Z,90.30
2019-02-08T19:30:23.896Z,91.10
2019-02-08T19:32:54.174Z,96.20
2019-02-08T19:35:24.555Z,94.00
2019-02-08T19:37:54.830Z,105.55
2019-02-08T19:40:28.481Z,120.77
2019-02-08T19:42:58.693Z,119.35
2019-02-08T19:45:29.027Z,116.95
2019-02-08T19:47:59.307Z,104.50
2019-02-08T19:50:32.161Z,93.97
2019-02-08T19:53:02.378Z,104.05
2019-02-08T19:55:32.740Z,103.35
2019-02-08T19:58:03.310Z,106.50
2019-02-08T20:00:38.358Z,103.47
2019-02-08T20:03:10.051Z,97.75
2019-02-08T20:05:40.633Z,90.47
2019-02-08T20:08:12.843Z,103.47
2019-02-08T20:10:48.313Z,104.47
2019-02-08T20:13:18.750Z,115.08
2019-02-08T20:15:49.506Z,115.08
2019-02-08T20:18:19.964Z,111.15
2019-02-08T20:20:50.482Z,106.32
2019-02-08T20:23:20.803Z,107.30
2019-02-08T20:25:51.342Z,98.07
2019-02-08T20:28:21.656Z,93.22
2019-02-08T20:30:52.119Z,97.25
2019-02-08T20:33:22.577Z,116.75
2019-02-08T20:35:53.045Z,111.20
2019-02-08T20:38:23.536Z,117.60
2019-02-08T20:40:53.975Z,120.25
2019-02-08T20:43:24.400Z,115.22
2019-02-08T20:45:54.664Z,117.00
2019-02-08T20:48:25.283Z,112.50
2019-02-08T20:50:55.942Z,123.97
2019-02-08T20:53:26.610Z,123.13
2019-02-08T20:55:56.926Z,120.62
2019-02-08T20:58:27.469Z,121.95
2019-02-08T21:00:57.927Z,121.50
2019-02-08T21:03:29.955Z,123.70
2019-02-08T21:06:00.537Z,123.40
2019-02-08T21:08:30.782Z,124.62
2019-02-08T21:11:01.205Z,113.75
2019-02-08T21:13:31.778Z,123.47
2019-02-08T21:16:02.120Z,105.43
2019-02-08T21:18:32.626Z,104.10
2019-02-08T21:21:05.539Z,105.50
2019-02-08T21:23:36.066Z,131.93
2019-02-08T21:26:06.602Z,132.20
2019-02-08T21:28:38.877Z,139.90
2019-02-08T21:31:09.785Z,145.55
2019-02-08T21:33:41.299Z,180.65
2019-02-08T21:36:13.214Z,189.55
2019-02-08T21:38:44.033Z,181.15
2019-02-08T21:41:14.336Z,150.18
2019-02-08T21:43:44.786Z,157.50
2019-02-08T21:46:15.211Z,156.57
2019-02-08T21:48:45.651Z,152.38
2019-02-08T21:51:16.169Z,149.50
2019-02-08T21:53:46.484Z,139.43
2019-02-08T21:56:16.912Z,156.12
2019-02-08T21:58:47.370Z,154.68
2019-02-08T22:01:17.762Z,137.47
2019-02-08T22:03:48.091Z,129.85
2019-02-08T22:06:18.471Z,125.45
2019-02-08T22:08:48.985Z,129.57
2019-02-08T22:11:19.532Z,135.07
2019-02-08T22:13:49.996Z,130.25
2019-02-08T22:16:20.263Z,138.90
2019-02-08T22:18:51.000Z,158.37
2019-02-08T22:21:20.720Z,162.73
2019-02-08T22:23:51.054Z,170.05
2019-02-08T22:26:21.719Z,165.30
2019-02-08T22:28:51.488Z,161.73
2019-02-08T22:31:22.078Z,164.93
2019-02-08T22:33:53.553Z,169.80
2019-02-08T22:36:23.769Z,169.05
2019-02-08T22:38:54.510Z,175.12
2019-02-08T22:41:24.814Z,170.62
2019-02-08T22:43:55.157Z,172.78
2019-02-08T22:46:25.510Z,173.43
2019-02-08T22:48:56.266Z,172.70
2019-02-08T22:51:26.492Z,171.32
2019-02-08T22:53:56.998Z,167.62
2019-02-08T22:56:27.328Z,170.82
2019-02-08T22:58:59.547Z,170.80
2019-02-08T23:01:31.504Z,162.95
2019-02-08T23:04:01.966Z,163.57
2019-02-08T23:06:32.580Z,159.87
2019-02-08T23:09:04.686Z,151.12
2019-02-08T23:11:34.971Z,149.27
2019-02-08T23:14:05.774Z,146.82
2019-02-08T23:16:36.147Z,147.22
2019-02-08T23:19:06.566Z,151.57
2019-02-08T23:21:36.840Z,151.15
2019-02-08T23:24:07.384Z,149.38
2019-02-08T23:26:38.243Z,142.50
2019-02-08T23:29:08.903Z,142.43
2019-02-08T23:31:58.468Z,146.65
2019-02-08T23:34:28.803Z,151.60
2019-02-08T23:36:59.024Z,155.72
2019-02-08T23:39:30.350Z,165.37
2019-02-08T23:42:00.706Z,168.93
2019-02-08T23:44:31.357Z,162.10
2019-02-08T23:47:01.733Z,158.27
2019-02-08T23:49:31.690Z,158.50
2019-02-08T23:52:01.923Z,161.10
2019-02-08T23:54:32.391Z,164.82
2019-02-08T23:57:02.686Z,161.00
2019-02-08T23:59:38.139Z,154.53
